Hovedside
METAR-TAF:

METAR-TAF

Lufthavner :

Topcliffe, England

breddegrad: 54-12N, lengdegrad: 001-23W, høyde over havet: 28 m

Gjeldene værobservasjon

Denne rapporten ble laget for 30 minutter siden, klokken 10:50 UTC
Vind 8 kt fra Vest-sørvest
Temperatur 10°C
Luftfuktighet 76%
Trykk 1009 hPa
Sikt 10 km eller mer

METAR: EGXZ 071050Z AUTO 24008KT 9999 FEW025/// BKN032/// BKN080/// 10/06 Q1009

Tid: 11:20 (11:20 UTC)


TAF: fraværende

Værobservasjoner og værvarsel for over 4000 flyplasser (METAR- og TAF-rapporter).

Tilgjengelige stasjoner er representert av de røde og gule prikkene på kartet.

Hold musepekeren over prikken for å se navnet på stasjonen.

Klikk så for å se værobservasjoner og -varsler.

For å forandre kartet kan du klikke på den grønne knappen med svart kryss for å zoome inn, på den grønne knappen med strek for å zoome ut, eller på de grønne pilene for å se tilstøtende kart.


METAR-TAF: